createdAt,value
2023-05-06T00:00:25.592Z,90.0770
2023-05-06T00:01:26.583Z,89.9484
2023-05-06T00:02:27.590Z,89.9060
2023-05-06T00:03:28.958Z,90.0771
2023-05-06T00:04:29.219Z,90.1579
2023-05-06T00:05:29.371Z,90.2787
2023-05-06T00:06:29.910Z,90.1519
2023-05-06T00:07:30.720Z,90.1529
2023-05-06T00:08:31.481Z,89.9423
2023-05-06T00:09:31.863Z,89.8818
2023-05-06T00:10:32.518Z,89.9643
2023-05-06T00:11:33.122Z,89.9380
2023-05-06T00:12:33.866Z,89.9734
2023-05-06T00:13:34.571Z,90.0583
2023-05-06T00:14:35.376Z,90.2004
2023-05-06T00:15:36.267Z,90.1610
2023-05-06T00:16:37.231Z,90.2859
2023-05-06T00:17:38.488Z,90.3048
2023-05-06T00:18:39.270Z,90.2902
2023-05-06T00:19:40.126Z,90.2898
2023-05-06T00:20:40.743Z,90.2202
2023-05-06T00:21:41.130Z,89.9891
2023-05-06T00:22:41.734Z,89.8028
2023-05-06T00:23:42.541Z,89.7445
2023-05-06T00:24:43.543Z,89.8219
2023-05-06T00:25:43.759Z,89.8331
2023-05-06T00:26:44.115Z,89.8985
2023-05-06T00:27:45.115Z,89.9280
2023-05-06T00:28:45.410Z,89.8443
2023-05-06T00:29:45.935Z,89.6392
2023-05-06T00:30:46.742Z,89.4244
2023-05-06T00:31:47.386Z,89.3991
2023-05-06T00:32:47.798Z,89.1020
2023-05-06T00:33:48.444Z,88.9687
2023-05-06T00:34:49.000Z,88.7233
2023-05-06T00:35:49.677Z,88.7757
2023-05-06T00:36:50.270Z,88.8113
2023-05-06T00:37:51.198Z,88.7540
2023-05-06T00:38:51.613Z,88.7371
2023-05-06T00:39:52.370Z,88.6957
2023-05-06T00:40:53.073Z,88.8279
2023-05-06T00:41:53.780Z,88.8447
2023-05-06T00:42:54.636Z,88.7816
2023-05-06T00:43:55.063Z,88.7940
2023-05-06T00:44:55.596Z,88.8023
2023-05-06T00:45:55.606Z,88.8320
2023-05-06T00:46:56.247Z,89.1222
2023-05-06T00:47:56.961Z,89.3152
2023-05-06T00:48:57.496Z,89.2936
2023-05-06T00:49:58.040Z,89.3569
2023-05-06T00:50:58.575Z,89.3056
2023-05-06T00:51:59.039Z,89.3628
2023-05-06T00:52:59.786Z,89.3736
2023-05-06T00:54:00.470Z,89.2708
2023-05-06T00:55:01.079Z,88.9936
2023-05-06T00:56:01.762Z,88.9309
2023-05-06T00:57:02.458Z,88.9929
2023-05-06T00:58:03.441Z,89.0804
2023-05-06T00:59:03.956Z,89.1104
2023-05-06T01:00:04.669Z,89.0634
2023-05-06T01:01:05.726Z,89.0521
2023-05-06T01:02:06.675Z,88.9340
2023-05-06T01:03:07.748Z,88.9547
2023-05-06T01:04:08.398Z,89.2194
2023-05-06T01:05:09.263Z,89.3080
2023-05-06T01:06:09.850Z,89.2660
2023-05-06T01:07:10.405Z,89.2601
2023-05-06T01:08:11.178Z,89.3122
2023-05-06T01:09:12.046Z,89.6216
2023-05-06T01:10:12.739Z,89.6619
2023-05-06T01:11:15.625Z,89.7872
2023-05-06T01:12:13.989Z,89.9370
2023-05-06T01:13:15.184Z,90.1162
2023-05-06T01:14:16.073Z,90.1998
2023-05-06T01:15:16.251Z,90.2803
2023-05-06T01:16:17.350Z,90.1579
2023-05-06T01:17:18.461Z,90.2749
2023-05-06T01:18:18.709Z,90.1422
2023-05-06T01:19:19.406Z,90.0447
2023-05-06T01:20:20.244Z,89.9779
2023-05-06T01:21:20.965Z,90.0858
2023-05-06T01:22:21.835Z,90.1930
2023-05-06T01:23:22.586Z,90.0963
2023-05-06T01:24:23.476Z,89.9025
2023-05-06T01:25:23.790Z,89.6664
2023-05-06T01:26:24.618Z,89.5213
2023-05-06T01:27:25.569Z,89.4490
2023-05-06T01:28:26.496Z,89.4198
2023-05-06T01:29:27.354Z,89.4825
2023-05-06T01:30:28.502Z,89.5176
2023-05-06T01:31:29.407Z,89.5849
2023-05-06T01:32:30.480Z,89.6365
2023-05-06T01:33:31.568Z,89.7554
2023-05-06T01:34:32.508Z,89.8121
2023-05-06T01:35:32.636Z,89.9156
2023-05-06T01:36:33.360Z,90.0335
2023-05-06T01:37:34.511Z,89.8034
2023-05-06T01:38:35.238Z,89.8384
2023-05-06T01:39:36.063Z,89.8212
2023-05-06T01:40:36.973Z,89.7690
2023-05-06T01:41:37.616Z,89.8542
2023-05-06T01:42:38.564Z,89.8692
2023-05-06T01:43:39.236Z,89.9137
2023-05-06T01:44:40.224Z,90.0742
2023-05-06T01:45:41.110Z,90.1550
2023-05-06T01:46:42.215Z,90.2643
2023-05-06T01:47:43.469Z,90.4913
2023-05-06T01:48:44.335Z,90.6443
2023-05-06T01:49:45.271Z,90.5686
2023-05-06T01:50:46.287Z,90.6003
2023-05-06T01:51:47.385Z,90.7884
2023-05-06T01:52:48.280Z,91.1935
2023-05-06T01:53:49.059Z,91.2156
2023-05-06T01:54:50.000Z,91.1616
2023-05-06T01:55:50.937Z,91.2856
2023-05-06T01:56:51.763Z,91.3175
2023-05-06T01:57:52.687Z,91.3048
2023-05-06T01:58:53.383Z,91.3275
2023-05-06T01:59:54.248Z,91.2953
2023-05-06T02:00:55.128Z,91.1956
2023-05-06T02:01:56.062Z,91.1367
2023-05-06T02:02:56.979Z,91.0585
2023-05-06T02:03:57.567Z,91.1691
2023-05-06T02:04:58.783Z,91.3101
2023-05-06T02:05:59.482Z,91.3734
2023-05-06T02:07:00.312Z,91.3698
2023-05-06T02:08:01.240Z,91.3484
2023-05-06T02:09:02.051Z,91.2137
2023-05-06T02:10:02.971Z,91.1685
2023-05-06T02:11:03.629Z,91.1935
2023-05-06T02:12:04.455Z,91.1880
2023-05-06T02:13:05.419Z,91.1777
2023-05-06T02:14:06.288Z,91.1783
2023-05-06T02:15:07.322Z,91.2342
2023-05-06T02:16:08.423Z,91.2940
2023-05-06T02:17:09.677Z,91.3519
2023-05-06T02:18:10.807Z,91.4609
2023-05-06T02:19:11.513Z,91.5011
2023-05-06T02:20:12.407Z,91.5288
2023-05-06T02:21:13.119Z,91.5539
2023-05-06T02:22:13.953Z,91.6467
2023-05-06T02:23:14.624Z,91.7809
2023-05-06T02:24:15.624Z,91.8115
2023-05-06T02:25:16.508Z,91.7583
2023-05-06T02:26:17.322Z,91.7438
2023-05-06T02:27:18.317Z,91.6668
2023-05-06T02:28:19.258Z,91.7779
2023-05-06T02:29:20.177Z,91.8434
2023-05-06T02:30:21.007Z,91.6977
2023-05-06T02:31:21.890Z,91.7606
2023-05-06T02:32:21.990Z,91.7740
2023-05-06T02:33:22.750Z,91.8061
2023-05-06T02:34:23.437Z,91.8525
2023-05-06T02:35:24.045Z,91.9235
2023-05-06T02:36:24.836Z,91.9484
2023-05-06T02:37:25.291Z,91.9250
2023-05-06T02:38:26.017Z,91.9741
2023-05-06T02:39:26.511Z,91.9193
2023-05-06T02:40:27.222Z,91.8864
2023-05-06T02:41:28.130Z,91.8935
2023-05-06T02:42:29.077Z,91.7501
2023-05-06T02:43:30.275Z,91.6299
2023-05-06T02:44:30.384Z,91.7539
2023-05-06T02:45:31.350Z,91.7886
2023-05-06T02:46:32.100Z,91.6899
2023-05-06T02:47:33.041Z,91.5562
2023-05-06T02:48:33.955Z,91.6095
2023-05-06T02:49:34.878Z,91.6646
2023-05-06T02:50:35.809Z,91.6731
2023-05-06T02:51:36.570Z,91.7623
2023-05-06T02:52:37.494Z,91.7751
2023-05-06T02:53:38.224Z,91.8116
2023-05-06T02:54:39.105Z,91.8155
2023-05-06T02:55:40.048Z,91.8153
2023-05-06T02:56:40.764Z,91.7644
2023-05-06T02:57:41.716Z,91.7041
2023-05-06T02:58:42.437Z,91.7330
2023-05-06T02:59:43.395Z,91.7174
2023-05-06T03:00:44.387Z,91.8119
2023-05-06T03:01:45.381Z,91.8005
2023-05-06T03:02:46.322Z,91.8556
2023-05-06T03:03:47.160Z,91.8787
2023-05-06T03:04:48.257Z,91.9245
2023-05-06T03:05:49.364Z,91.8823
2023-05-06T03:06:50.110Z,91.9167
2023-05-06T03:07:51.031Z,91.9136
2023-05-06T03:08:51.802Z,91.9370
2023-05-06T03:09:52.685Z,91.9194
2023-05-06T03:10:53.473Z,91.9109
2023-05-06T03:11:54.436Z,91.9531
2023-05-06T03:12:55.363Z,92.0061
2023-05-06T03:13:56.384Z,92.0146
2023-05-06T03:14:57.459Z,92.0458
2023-05-06T03:15:58.261Z,92.0929
2023-05-06T03:16:59.368Z,92.1353
2023-05-06T03:17:59.705Z,92.2171
2023-05-06T03:19:00.675Z,92.2356
2023-05-06T03:20:01.729Z,92.2404
2023-05-06T03:21:02.527Z,92.2101
2023-05-06T03:22:03.806Z,92.2665
2023-05-06T03:23:04.674Z,92.2878
2023-05-06T03:24:05.577Z,92.2951
2023-05-06T03:25:06.512Z,92.2606
2023-05-06T03:26:06.598Z,92.2373
2023-05-06T03:27:07.640Z,92.1495
2023-05-06T03:28:08.607Z,92.1307
2023-05-06T03:29:09.428Z,92.0589
2023-05-06T03:30:10.517Z,92.0374
2023-05-06T03:31:11.382Z,92.0680
2023-05-06T03:32:11.536Z,92.0795
2023-05-06T03:33:12.871Z,92.1168
2023-05-06T03:34:13.741Z,92.1858
2023-05-06T03:35:14.475Z,92.2677
2023-05-06T03:36:15.270Z,92.2857
2023-05-06T03:37:16.303Z,92.3395
2023-05-06T03:38:17.196Z,92.4808
2023-05-06T03:39:18.294Z,92.5430
2023-05-06T03:40:19.264Z,92.5549
2023-05-06T03:41:19.993Z,92.6101
2023-05-06T03:42:20.724Z,92.7637
2023-05-06T03:43:21.470Z,93.0267
2023-05-06T03:44:22.461Z,93.1615
2023-05-06T03:45:23.383Z,93.2778
2023-05-06T03:46:24.390Z,93.3705
2023-05-06T03:47:25.657Z,93.4878
2023-05-06T03:48:26.759Z,93.6165
2023-05-06T03:49:27.899Z,93.6886
2023-05-06T03:50:28.978Z,93.7891
2023-05-06T03:51:29.987Z,93.8792
2023-05-06T03:52:31.021Z,93.9537
2023-05-06T03:53:31.906Z,93.9503
2023-05-06T03:54:32.883Z,93.9106
2023-05-06T03:55:33.189Z,93.7827
2023-05-06T03:56:34.016Z,93.7765
2023-05-06T03:57:35.296Z,93.8022
2023-05-06T03:58:36.338Z,93.8595
2023-05-06T03:59:37.239Z,94.0034
2023-05-06T04:00:38.355Z,94.0511
2023-05-06T04:01:39.299Z,94.1321
2023-05-06T04:02:39.653Z,94.2036
2023-05-06T04:03:40.015Z,94.2618
2023-05-06T04:04:39.976Z,94.1308
2023-05-06T04:05:41.009Z,94.1108
2023-05-06T04:06:41.947Z,94.0790
2023-05-06T04:07:42.875Z,94.0889
2023-05-06T04:08:43.744Z,94.1362
2023-05-06T04:09:44.738Z,94.1816
2023-05-06T04:10:45.857Z,94.2546
2023-05-06T04:11:45.845Z,94.3523
2023-05-06T04:12:46.881Z,94.3674
2023-05-06T04:13:46.911Z,94.3645
2023-05-06T04:14:47.922Z,94.3321
2023-05-06T04:15:48.723Z,94.3150
2023-05-06T04:16:49.780Z,94.3099
2023-05-06T04:17:50.636Z,94.3324
2023-05-06T04:18:51.687Z,94.3298
2023-05-06T04:19:52.578Z,94.3727
2023-05-06T04:20:53.444Z,94.3706
2023-05-06T04:21:54.565Z,94.3439
2023-05-06T04:22:55.389Z,94.3380
2023-05-06T04:23:56.344Z,94.3420
2023-05-06T04:24:57.416Z,94.3400
2023-05-06T04:25:58.244Z,94.3178
2023-05-06T04:26:59.190Z,94.3272
2023-05-06T04:28:00.155Z,94.2308
2023-05-06T04:29:01.111Z,94.1833
2023-05-06T04:30:02.404Z,94.1222
2023-05-06T04:31:03.187Z,93.9676
2023-05-06T04:32:04.404Z,93.8522
2023-05-06T04:33:05.525Z,93.7508
2023-05-06T04:34:05.885Z,93.5956
2023-05-06T04:35:07.117Z,93.4554
2023-05-06T04:36:08.070Z,93.3508
2023-05-06T04:37:09.173Z,93.3012
2023-05-06T04:38:09.948Z,93.3184
2023-05-06T04:39:11.027Z,93.2710
2023-05-06T04:40:12.090Z,93.1990
2023-05-06T04:41:12.956Z,93.1840
2023-05-06T04:42:14.147Z,93.2210
2023-05-06T04:43:15.082Z,93.2827
2023-05-06T04:44:16.169Z,93.3063
2023-05-06T04:45:17.242Z,93.2762
2023-05-06T04:46:18.395Z,93.2736
2023-05-06T04:47:19.513Z,93.3320
2023-05-06T04:48:20.700Z,93.3515
2023-05-06T04:49:21.829Z,93.2947
2023-05-06T04:50:22.947Z,93.3356
2023-05-06T04:51:24.006Z,93.2469
2023-05-06T04:52:24.108Z,93.1569
2023-05-06T04:53:25.575Z,93.1613
2023-05-06T04:54:26.569Z,93.2619
2023-05-06T04:55:26.986Z,93.2903
2023-05-06T04:56:27.952Z,93.3788
2023-05-06T04:57:29.067Z,93.4040
2023-05-06T04:58:30.161Z,93.4087
2023-05-06T04:59:31.137Z,93.3859
2023-05-06T05:00:32.318Z,93.3485
2023-05-06T05:01:33.561Z,93.3563
2023-05-06T05:02:33.934Z,93.3239
2023-05-06T05:03:34.686Z,93.3153
2023-05-06T05:04:34.622Z,93.3423
2023-05-06T05:05:34.684Z,93.3625
2023-05-06T05:06:35.584Z,93.4019
2023-05-06T05:07:36.743Z,93.3111
2023-05-06T05:08:37.719Z,93.3210
2023-05-06T05:09:38.984Z,93.3475
2023-05-06T05:11:39.704Z,93.1742
2023-05-06T05:12:41.044Z,93.0711
2023-05-06T05:13:40.998Z,93.0272
2023-05-06T05:14:42.148Z,92.9901
2023-05-06T05:15:42.315Z,92.9606
2023-05-06T05:16:43.636Z,93.0132
2023-05-06T05:18:44.427Z,93.0965
2023-05-06T05:19:44.625Z,93.1213
2023-05-06T05:20:45.665Z,93.3239
2023-05-06T05:21:46.825Z,93.5304
2023-05-06T05:22:47.778Z,93.7083
2023-05-06T05:23:49.014Z,93.6525
2023-05-06T05:24:50.124Z,93.4185
2023-05-06T05:25:50.813Z,93.3373
2023-05-06T05:26:51.984Z,93.2474
2023-05-06T05:27:52.926Z,93.0915
2023-05-06T05:28:54.000Z,92.9309
2023-05-06T05:29:55.167Z,92.7193
2023-05-06T05:30:56.379Z,92.5741
2023-05-06T05:31:57.518Z,92.6356
2023-05-06T05:32:59.008Z,92.8099
2023-05-06T05:33:59.021Z,92.9160
2023-05-06T05:35:00.303Z,92.9443
2023-05-06T05:36:01.300Z,92.8237
2023-05-06T05:37:02.492Z,92.3942
2023-05-06T05:38:03.532Z,92.3939
2023-05-06T05:39:04.852Z,92.3622
2023-05-06T05:40:06.021Z,92.3229
2023-05-06T05:41:07.067Z,92.1322
2023-05-06T05:42:08.376Z,92.2291
2023-05-06T05:43:09.597Z,92.1919
2023-05-06T05:44:10.764Z,92.0262
2023-05-06T05:45:11.214Z,91.9167
2023-05-06T05:46:12.280Z,91.9342
2023-05-06T05:47:12.383Z,91.9117
2023-05-06T05:48:13.671Z,91.9174
2023-05-06T05:49:14.870Z,91.8812
2023-05-06T05:50:16.155Z,91.8209
2023-05-06T05:52:16.938Z,91.7267
2023-05-06T05:53:18.166Z,91.6059
2023-05-06T05:54:18.145Z,91.4569
2023-05-06T05:55:19.454Z,91.3834
2023-05-06T05:56:20.038Z,91.4619
2023-05-06T05:57:21.097Z,91.2275
2023-05-06T05:58:22.605Z,91.1312
2023-05-06T06:00:23.566Z,91.1011
2023-05-06T06:01:23.504Z,91.3497
2023-05-06T06:02:24.556Z,91.5166
2023-05-06T06:03:25.652Z,91.4389
2023-05-06T06:04:26.710Z,91.3967
2023-05-06T06:05:27.351Z,91.5449
2023-05-06T06:06:28.661Z,91.8156
2023-05-06T06:07:29.690Z,91.8738
2023-05-06T06:08:30.885Z,91.8225
2023-05-06T06:09:32.103Z,91.7407
2023-05-06T06:10:33.154Z,91.7073
2023-05-06T06:11:34.369Z,91.6525
2023-05-06T06:12:35.411Z,91.3343
2023-05-06T06:13:35.879Z,91.2037
2023-05-06T06:14:36.993Z,90.8477
2023-05-06T06:15:38.277Z,90.7413
2023-05-06T06:16:38.762Z,90.6495
2023-05-06T06:17:38.660Z,90.5335
2023-05-06T06:18:38.850Z,90.4306
2023-05-06T06:19:39.985Z,89.9268
2023-05-06T06:20:41.252Z,89.9611
2023-05-06T06:21:42.356Z,89.9923
2023-05-06T06:22:43.426Z,90.3364
2023-05-06T06:23:44.467Z,90.5366
2023-05-06T06:24:45.595Z,90.6391
2023-05-06T06:25:45.925Z,90.7547
2023-05-06T06:26:46.941Z,90.5214
2023-05-06T06:27:48.202Z,90.3651
2023-05-06T06:28:49.523Z,90.2748
2023-05-06T06:29:50.520Z,90.3031
2023-05-06T06:30:51.845Z,90.3381
2023-05-06T06:31:51.897Z,90.5509
2023-05-06T06:32:51.932Z,90.6736
2023-05-06T06:33:53.136Z,90.5013
2023-05-06T06:34:54.442Z,90.5826
2023-05-06T06:35:54.632Z,90.7395
2023-05-06T06:36:55.853Z,90.8728
2023-05-06T06:37:57.116Z,90.6680
2023-05-06T06:38:58.360Z,90.5361
2023-05-06T06:39:58.172Z,90.6325
2023-05-06T06:40:59.418Z,90.6805
2023-05-06T06:42:00.616Z,90.6039
2023-05-06T06:43:01.644Z,90.5463
2023-05-06T06:44:02.793Z,90.3032
2023-05-06T06:45:04.075Z,90.1347
2023-05-06T06:46:05.239Z,90.0955
2023-05-06T06:47:06.551Z,89.8306
2023-05-06T06:48:06.677Z,89.6903
2023-05-06T06:49:06.708Z,89.8553
2023-05-06T06:50:07.737Z,90.0059
2023-05-06T06:52:08.582Z,89.7767
2023-05-06T06:53:09.908Z,88.9013
2023-05-06T06:54:11.102Z,88.5849
2023-05-06T06:55:11.696Z,88.8849
2023-05-06T06:56:11.624Z,89.0993
2023-05-06T06:57:11.611Z,88.2977
2023-05-06T06:58:12.666Z,88.0942
2023-05-06T06:59:14.040Z,88.5378
2023-05-06T07:00:15.052Z,88.4077
2023-05-06T07:03:17.628Z,87.6604
2023-05-06T07:04:18.933Z,87.4444
2023-05-06T07:05:19.941Z,87.5446
2023-05-06T07:06:20.790Z,88.0414
2023-05-06T07:07:21.131Z,88.5966
2023-05-06T07:08:21.659Z,88.3528
2023-05-06T07:09:22.401Z,88.0711
2023-05-06T07:10:22.668Z,88.0140
2023-05-06T07:11:23.041Z,87.8424
2023-05-06T07:12:23.649Z,87.5283
2023-05-06T07:13:24.469Z,87.9100
2023-05-06T07:14:25.224Z,88.0078
2023-05-06T07:16:25.796Z,88.1638
2023-05-06T07:17:26.150Z,87.6516
2023-05-06T07:18:26.106Z,87.4221
2023-05-06T07:19:26.279Z,87.7529
2023-05-06T07:20:27.329Z,87.7721
2023-05-06T07:21:28.459Z,87.3307
2023-05-06T07:22:28.616Z,86.9893
2023-05-06T07:23:31.897Z,86.2889
2023-05-06T07:24:30.885Z,86.1790
2023-05-06T07:25:32.059Z,85.8573
2023-05-06T07:26:33.414Z,85.7943
2023-05-06T07:27:34.711Z,86.1248
2023-05-06T07:28:35.941Z,85.9268
2023-05-06T07:29:36.105Z,85.2622
2023-05-06T07:30:37.438Z,85.5212
2023-05-06T07:31:37.768Z,85.8256
2023-05-06T07:32:38.927Z,85.9389
2023-05-06T07:33:40.252Z,86.1041
2023-05-06T07:34:41.359Z,86.1738
2023-05-06T07:35:41.525Z,85.8490
2023-05-06T07:36:42.764Z,85.7173
2023-05-06T07:37:43.763Z,85.2371
2023-05-06T07:38:44.800Z,84.9411
2023-05-06T07:39:45.660Z,84.8442
2023-05-06T07:40:46.822Z,85.2602
2023-05-06T07:41:47.349Z,85.5593
2023-05-06T07:42:48.253Z,85.5643
2023-05-06T07:43:48.416Z,85.1775
2023-05-06T07:44:49.208Z,85.3570
2023-05-06T07:45:50.200Z,85.2967
2023-05-06T07:46:51.244Z,85.2208
2023-05-06T07:47:51.077Z,85.1448
2023-05-06T07:48:51.864Z,84.9608
2023-05-06T07:49:52.597Z,84.7421
2023-05-06T07:50:53.018Z,84.2612
2023-05-06T07:51:54.902Z,84.5816
2023-05-06T07:52:54.995Z,84.5232
2023-05-06T07:53:55.624Z,84.7489
2023-05-06T07:54:56.606Z,84.2272
2023-05-06T07:55:56.779Z,83.8251
2023-05-06T07:56:57.226Z,83.8936
2023-05-06T07:57:58.506Z,83.9426
2023-05-06T07:58:59.778Z,84.6752
2023-05-06T07:59:59.982Z,84.4000
2023-05-06T08:01:01.282Z,83.9279
2023-05-06T08:02:02.580Z,83.7397
2023-05-06T08:03:04.060Z,83.5470
2023-05-06T08:04:04.152Z,83.7549
2023-05-06T08:05:04.913Z,83.5854
2023-05-06T08:07:12.970Z,83.0412
2023-05-06T08:08:14.214Z,82.4797
2023-05-06T08:09:22.241Z,82.2085
2023-05-06T08:10:15.798Z,82.4809
2023-05-06T08:11:18.823Z,82.5888
2023-05-06T08:12:17.599Z,82.2008
2023-05-06T08:13:18.900Z,82.1087
2023-05-06T08:14:20.137Z,81.4281
2023-05-06T08:15:20.129Z,80.4982
2023-05-06T08:16:22.576Z,79.7790
2023-05-06T08:17:21.800Z,80.0983
2023-05-06T08:18:23.496Z,80.2637
2023-05-06T08:19:23.469Z,80.2051
2023-05-06T08:20:23.279Z,80.4159
2023-05-06T08:21:24.153Z,79.1333
2023-05-06T08:22:25.360Z,78.5203
2023-05-06T08:23:26.412Z,77.9229
2023-05-06T08:24:27.292Z,77.7074
2023-05-06T08:25:27.416Z,77.5676
2023-05-06T08:26:28.509Z,77.2497
2023-05-06T08:27:29.298Z,77.1572
2023-05-06T08:28:30.194Z,75.4790
2023-05-06T08:29:31.008Z,74.8204
2023-05-06T08:30:32.138Z,74.7843
2023-05-06T08:31:33.191Z,74.9716
2023-05-06T08:32:33.300Z,74.7997
2023-05-06T08:33:33.512Z,75.1334
2023-05-06T08:34:33.759Z,74.9773
2023-05-06T08:35:34.010Z,74.8055
2023-05-06T08:36:34.831Z,75.0556
2023-05-06T08:37:35.906Z,75.3126
2023-05-06T08:38:36.809Z,76.2384
2023-05-06T08:39:37.822Z,76.3609
2023-05-06T08:40:38.685Z,76.3870
2023-05-06T08:41:39.972Z,76.2702
2023-05-06T08:42:41.122Z,76.1356
2023-05-06T08:43:42.183Z,76.0159
2023-05-06T08:44:43.213Z,76.2090
2023-05-06T08:45:44.163Z,75.8594
2023-05-06T08:46:44.451Z,75.8642
2023-05-06T08:47:45.482Z,76.1815
2023-05-06T08:48:46.320Z,76.1237
2023-05-06T08:49:47.441Z,75.8348
2023-05-06T08:50:48.468Z,75.5274
2023-05-06T08:51:49.712Z,75.7777
2023-05-06T08:52:51.036Z,75.5728
2023-05-06T08:53:52.188Z,74.9895
2023-05-06T08:54:52.295Z,74.7658
2023-05-06T08:55:52.485Z,74.7427
2023-05-06T08:56:53.772Z,74.4075
2023-05-06T08:57:54.276Z,73.6588
2023-05-06T08:58:55.369Z,71.9524
2023-05-06T08:59:56.647Z,71.2673
2023-05-06T09:00:57.487Z,70.1441
2023-05-06T09:01:57.719Z,69.6222
2023-05-06T09:02:58.853Z,71.3228
2023-05-06T09:03:59.617Z,72.1049
2023-05-06T09:05:00.847Z,72.7768
2023-05-06T09:06:00.854Z,72.8966
2023-05-06T09:07:01.990Z,72.1570
2023-05-06T09:08:03.266Z,71.3561
2023-05-06T09:09:04.508Z,71.1389
2023-05-06T09:10:05.347Z,71.3894
2023-05-06T09:11:06.380Z,72.0602
2023-05-06T09:12:07.610Z,71.6460
2023-05-06T09:13:08.684Z,71.7596
2023-05-06T09:14:09.840Z,71.6846
2023-05-06T09:15:10.741Z,70.4653
2023-05-06T09:16:11.688Z,70.7505
2023-05-06T09:17:12.849Z,70.8223
2023-05-06T09:18:13.066Z,69.9629
2023-05-06T09:19:14.017Z,70.0898
2023-05-06T09:20:14.817Z,69.3768
2023-05-06T09:21:15.456Z,69.5899
2023-05-06T09:22:15.609Z,70.2776
2023-05-06T09:23:16.603Z,70.4826
2023-05-06T09:24:17.647Z,70.2229
2023-05-06T09:25:18.603Z,71.2359
2023-05-06T09:26:19.575Z,71.7285
2023-05-06T09:27:20.108Z,72.1698
2023-05-06T09:28:21.395Z,73.8909
2023-05-06T09:29:22.406Z,73.5295
2023-05-06T09:30:23.625Z,72.7784
2023-05-06T09:31:24.368Z,72.3915
2023-05-06T09:32:25.377Z,73.4966
2023-05-06T09:33:25.905Z,73.4471
2023-05-06T09:34:26.986Z,73.6812
2023-05-06T09:35:27.037Z,73.0965
2023-05-06T09:36:28.381Z,73.1338
2023-05-06T09:37:29.399Z,73.9263
2023-05-06T09:38:30.358Z,73.6776
2023-05-06T09:39:31.351Z,73.6771
2023-05-06T09:40:32.268Z,73.6286
2023-05-06T09:41:33.265Z,74.0697
2023-05-06T09:42:34.190Z,73.9262
2023-05-06T09:43:35.206Z,73.5879
2023-05-06T09:44:36.538Z,73.0980
2023-05-06T09:45:37.336Z,73.2501
2023-05-06T09:46:38.751Z,72.5584
2023-05-06T09:47:39.079Z,72.2942
2023-05-06T09:48:39.096Z,72.6059
2023-05-06T09:49:40.064Z,72.5492
2023-05-06T09:50:40.975Z,72.3584
2023-05-06T09:51:41.938Z,72.2933
2023-05-06T09:52:43.052Z,71.7155
2023-05-06T09:53:44.107Z,72.5774
2023-05-06T09:54:45.021Z,71.4667
2023-05-06T09:55:45.131Z,71.3504
2023-05-06T09:56:46.188Z,70.5862
2023-05-06T09:57:46.468Z,69.7233
2023-05-06T09:58:47.529Z,66.7151
2023-05-06T09:59:48.656Z,65.3582
2023-05-06T10:00:48.836Z,66.0564
2023-05-06T10:01:49.247Z,66.0061
2023-05-06T10:02:49.448Z,66.1045
2023-05-06T10:03:49.617Z,64.9087
2023-05-06T10:04:50.229Z,65.6420
2023-05-06T10:05:50.870Z,66.5187
2023-05-06T10:06:51.821Z,67.7943
2023-05-06T10:07:52.869Z,68.0667
2023-05-06T10:08:53.884Z,67.3821
2023-05-06T10:09:54.981Z,67.2290
2023-05-06T10:10:56.014Z,67.9952
2023-05-06T10:11:57.044Z,68.5977
2023-05-06T10:12:57.181Z,69.0877
2023-05-06T10:13:58.294Z,69.5811
2023-05-06T10:14:58.440Z,69.0887
2023-05-06T10:15:59.605Z,68.5506
2023-05-06T10:16:59.939Z,67.4784
2023-05-06T10:18:00.253Z,67.5172
2023-05-06T10:19:01.221Z,68.5001
2023-05-06T10:20:01.881Z,67.3085
2023-05-06T10:21:02.818Z,66.6004
2023-05-06T10:22:05.587Z,67.2640
2023-05-06T10:23:04.580Z,67.6305
2023-05-06T10:24:05.403Z,67.2945
2023-05-06T10:25:06.567Z,67.6173
2023-05-06T10:26:07.719Z,67.2392
2023-05-06T10:27:08.766Z,67.2948
2023-05-06T10:28:23.170Z,67.9959
2023-05-06T10:29:13.412Z,66.7687
2023-05-06T10:30:14.560Z,66.3327
2023-05-06T10:31:15.691Z,67.0156
2023-05-06T10:32:15.608Z,65.9365
2023-05-06T10:33:16.948Z,65.5897
2023-05-06T10:34:18.025Z,65.3378
2023-05-06T10:36:18.865Z,63.7635
2023-05-06T10:37:19.935Z,63.8294
2023-05-06T10:38:20.875Z,64.2101
2023-05-06T10:39:21.931Z,63.9420
2023-05-06T10:40:23.098Z,63.8543
2023-05-06T10:41:24.065Z,63.3988
2023-05-06T10:42:25.453Z,62.3519
2023-05-06T10:43:26.495Z,61.2951
2023-05-06T10:44:27.619Z,60.4075
2023-05-06T10:45:28.769Z,60.4172
2023-05-06T10:46:29.801Z,60.4238
2023-05-06T10:47:30.900Z,60.4204
2023-05-06T10:48:32.009Z,60.3722
2023-05-06T10:49:33.340Z,59.5646
2023-05-06T10:50:34.482Z,59.6765
2023-05-06T10:51:35.397Z,59.4583
2023-05-06T10:52:36.652Z,60.1508
2023-05-06T10:53:37.546Z,60.7417
2023-05-06T10:56:39.279Z,58.4476
2023-05-06T10:57:40.292Z,59.2698
2023-05-06T10:58:41.474Z,59.1171
2023-05-06T10:59:42.599Z,56.7281
2023-05-06T11:00:43.432Z,56.4010
2023-05-06T11:01:43.711Z,57.6930
2023-05-06T11:02:49.398Z,57.6619
2023-05-06T11:03:49.983Z,57.4313
2023-05-06T11:04:51.004Z,57.6714
2023-05-06T11:05:52.139Z,56.9604
2023-05-06T11:06:53.195Z,56.7124
2023-05-06T11:07:54.322Z,55.3382
2023-05-06T11:08:55.369Z,54.3683
2023-05-06T11:09:56.389Z,55.2389
2023-05-06T11:10:57.404Z,55.4065
2023-05-06T11:11:58.333Z,55.1430
2023-05-06T11:12:58.557Z,54.3143
2023-05-06T11:13:59.728Z,53.9143
2023-05-06T11:15:00.906Z,54.4308
2023-05-06T11:16:02.105Z,55.5492
2023-05-06T11:17:03.630Z,55.8283
2023-05-06T11:18:04.755Z,55.4918
2023-05-06T11:19:04.856Z,55.5433
2023-05-06T11:21:05.230Z,55.5816
2023-05-06T11:22:06.246Z,56.3595
2023-05-06T11:23:06.383Z,57.1791
2023-05-06T11:24:07.293Z,56.5668
2023-05-06T11:25:08.298Z,55.6317
2023-05-06T11:26:09.329Z,53.8337
2023-05-06T11:27:10.671Z,54.8312
2023-05-06T11:28:10.900Z,54.7893
2023-05-06T11:29:11.508Z,55.0292
2023-05-06T11:30:12.785Z,55.4376
2023-05-06T11:31:12.661Z,55.7367
2023-05-06T11:32:12.865Z,57.0599
2023-05-06T11:33:14.031Z,57.1898
2023-05-06T11:34:15.291Z,57.6088
2023-05-06T11:35:16.215Z,59.1611
2023-05-06T11:36:17.390Z,58.7858
2023-05-06T11:37:18.519Z,58.7644
2023-05-06T11:38:18.584Z,57.0902
2023-05-06T11:39:19.633Z,58.5021
2023-05-06T11:40:19.875Z,58.3970
2023-05-06T11:41:20.852Z,57.6387
2023-05-06T11:42:21.769Z,58.2267
2023-05-06T11:43:22.830Z,57.3084
2023-05-06T11:44:23.891Z,56.8866
2023-05-06T11:46:24.595Z,57.4585
2023-05-06T11:47:24.736Z,55.5279
2023-05-06T11:48:24.750Z,56.6005
2023-05-06T11:49:26.063Z,56.4139
2023-05-06T11:50:26.245Z,55.4477
2023-05-06T11:51:27.415Z,55.6579
2023-05-06T11:52:27.503Z,56.0123
2023-05-06T11:53:27.840Z,56.0565
2023-05-06T11:55:28.991Z,58.0397
2023-05-06T11:56:29.475Z,58.1350
2023-05-06T11:57:30.635Z,59.0976
2023-05-06T11:58:30.773Z,57.9605
2023-05-06T11:59:31.432Z,56.2475
2023-05-06T12:00:31.715Z,56.2146
2023-05-06T12:01:31.992Z,56.3778
2023-05-06T12:02:32.763Z,55.9160
2023-05-06T12:03:34.738Z,55.6897
2023-05-06T12:04:34.952Z,55.7306
2023-05-06T12:05:36.414Z,56.1428
2023-05-06T12:07:36.017Z,55.0473
2023-05-06T12:08:36.036Z,54.0158
2023-05-06T12:09:36.117Z,54.4601
2023-05-06T12:10:37.137Z,55.4357
2023-05-06T12:11:37.218Z,53.4177
2023-05-06T12:12:37.963Z,51.9829
2023-05-06T12:13:38.953Z,52.0730
2023-05-06T12:14:39.245Z,48.9559
2023-05-06T12:15:39.832Z,47.9051
2023-05-06T12:16:40.114Z,47.9507
2023-05-06T12:18:44.137Z,48.0685
2023-05-06T12:19:45.399Z,46.8843
2023-05-06T12:20:45.851Z,46.7969
2023-05-06T12:21:45.909Z,46.8266
2023-05-06T12:22:46.321Z,45.3607
2023-05-06T12:23:48.535Z,44.9934
2023-05-06T12:25:36.641Z,45.5361
2023-05-06T12:26:37.770Z,45.8244
2023-05-06T12:27:38.135Z,47.2591
2023-05-06T12:28:38.420Z,47.6484
2023-05-06T12:29:39.392Z,47.1776
2023-05-06T12:30:40.721Z,47.6905
2023-05-06T12:31:41.998Z,46.1884
2023-05-06T12:32:42.096Z,46.8503
2023-05-06T12:33:43.429Z,47.9377